Time;durP1;ratioP1;P1;durP2;ratioP2;P2;SDS_P1;SDS_P2;PMS_P1;PMS_P2;Temp;Humidity;BMP_temperature;BMP_pressure;BME280_temperature;BME280_humidity;BME280_pressure;Samples;Min_cycle;Max_cycle;Signal;HPM_P1;HPM_P2
2022/08/31 00:04:04;;;;;;;0.00;0.00;;;17.10;99.70;;;;;;5042075;28;20061;-83
2022/08/31 00:06:32;;;;;;;0.10;0.10;;;17.10;99.60;;;;;;5004483;28;20045;-83
2022/08/31 00:08:59;;;;;;;0.00;0.00;;;17.10;99.60;;;;;;5028356;28;20066;-85
2022/08/31 00:11:29;;;;;;;1.00;0.00;;;17.00;99.60;;;;;;5017755;28;20496;-89
2022/08/31 00:14:05;;;;;;;0.00;0.00;;;17.00;99.40;;;;;;5024612;28;20038;-83
2022/08/31 00:16:33;;;;;;;0.00;0.00;;;17.00;99.40;;;;;;5023571;28;20135;-83
2022/08/31 00:18:59;;;;;;;0.00;0.00;;;17.00;99.40;;;;;;5034327;28;20103;-83
2022/08/31 00:21:25;;;;;;;0.03;0.03;;;16.90;99.10;;;;;;5037650;28;20799;-90
2022/08/31 00:23:53;;;;;;;0.00;0.00;;;16.90;99.00;;;;;;5031952;28;20045;-83
2022/08/31 00:26:20;;;;;;;0.00;0.00;;;16.90;98.80;;;;;;5022760;28;20052;-85
2022/08/31 00:28:46;;;;;;;0.00;0.00;;;16.80;98.60;;;;;;5029908;28;20071;-83
2022/08/31 00:31:12;;;;;;;0.05;0.05;;;16.80;98.70;;;;;;5018616;28;20550;-87
2022/08/31 00:33:39;;;;;;;0.00;0.00;;;16.80;99.00;;;;;;5034783;28;20081;-83
2022/08/31 00:36:06;;;;;;;;;;;16.80;98.40;;;;;;5006084;28;20048;-83
2022/08/31 00:38:32;;;;;;;0.00;0.00;;;16.80;98.00;;;;;;5049513;28;19928;-84
2022/08/31 00:40:58;;;;;;;0.00;0.00;;;16.80;98.30;;;;;;5024288;28;20029;-83
2022/08/31 00:43:43;;;;;;;0.00;0.00;;;16.70;98.30;;;;;;5016928;28;20099;-83
2022/08/31 00:46:11;;;;;;;0.00;0.00;;;16.70;97.80;;;;;;5011847;28;20060;-84
2022/08/31 00:48:42;;;;;;;0.08;0.08;;;16.70;98.00;;;;;;5015403;28;20044;-83
2022/08/31 00:51:08;;;;;;;0.00;0.00;;;16.60;98.00;;;;;;5016610;28;20045;-84
2022/08/31 00:53:36;;;;;;;0.00;0.00;;;16.60;98.20;;;;;;5025007;28;20396;-83
2022/08/31 00:56:02;;;;;;;0.00;0.00;;;16.60;98.10;;;;;;5030190;28;20064;-83
2022/08/31 00:58:28;;;;;;;0.00;0.00;;;16.60;98.20;;;;;;5052826;28;20174;-83
2022/08/31 01:00:53;;;;;;;0.00;0.00;;;16.50;97.90;;;;;;5051427;28;20123;-84
2022/08/31 01:03:21;;;;;;;0.00;0.00;;;16.50;98.00;;;;;;5059070;28;20040;-83
2022/08/31 01:05:48;;;;;;;0.00;0.00;;;16.50;97.80;;;;;;5050035;28;20141;-83
2022/08/31 01:08:13;;;;;;;0.00;0.00;;;16.50;97.80;;;;;;5056998;28;20313;-83
2022/08/31 01:10:42;;;;;;;0.03;0.00;;;16.50;97.90;;;;;;5056076;28;20135;-83
2022/08/31 01:13:11;;;;;;;0.00;0.00;;;16.40;98.00;;;;;;5063286;28;20412;-83
2022/08/31 01:15:41;;;;;;;0.00;0.00;;;16.40;97.90;;;;;;5063702;28;20094;-83
2022/08/31 01:18:07;;;;;;;0.00;0.00;;;16.40;97.70;;;;;;5044667;28;20036;-85
2022/08/31 01:21:10;;;;;;;0.00;0.00;;;16.30;97.80;;;;;;5057485;28;20075;-89
2022/08/31 01:23:41;;;;;;;0.00;0.00;;;16.40;97.40;;;;;;5049113;28;20041;-84
2022/08/31 01:26:09;;;;;;;0.08;0.00;;;16.30;97.70;;;;;;5051421;28;20045;-84
2022/08/31 01:28:35;;;;;;;0.00;0.00;;;16.30;97.80;;;;;;5083344;28;20067;-90
2022/08/31 01:31:02;;;;;;;0.00;0.00;;;16.30;97.80;;;;;;5051635;28;20053;-83
2022/08/31 01:33:29;;;;;;;0.05;0.05;;;16.20;97.70;;;;;;5058252;28;20547;-83
2022/08/31 01:35:55;;;;;;;0.73;0.25;;;16.20;98.30;;;;;;5035657;28;20268;-83
2022/08/31 01:38:21;;;;;;;0.00;0.00;;;16.20;98.00;;;;;;5051004;28;20037;-84
2022/08/31 01:40:56;;;;;;;0.00;0.00;;;16.10;98.00;;;;;;5033602;28;20055;-83
2022/08/31 01:43:23;;;;;;;0.00;0.00;;;16.10;97.90;;;;;;5052980;28;20044;-83
2022/08/31 01:45:48;;;;;;;;;;;16.10;98.20;;;;;;5060631;28;20037;-83
2022/08/31 01:48:15;;;;;;;0.00;0.00;;;16.00;98.10;;;;;;5050937;28;19921;-83
2022/08/31 01:50:41;;;;;;;0.10;0.08;;;16.00;98.30;;;;;;5050579;28;20048;-83
2022/08/31 01:53:07;;;;;;;0.10;0.10;;;16.00;98.50;;;;;;5053837;28;20040;-83
2022/08/31 01:55:33;;;;;;;0.00;0.00;;;15.90;98.40;;;;;;5049524;28;20049;-83
2022/08/31 01:58:00;;;;;;;0.00;0.00;;;15.80;98.60;;;;;;5052835;28;20874;-83
2022/08/31 02:00:27;;;;;;;;;;;15.70;98.60;;;;;;5082881;28;20048;-83
2022/08/31 02:02:53;;;;;;;0.00;0.00;;;15.70;98.70;;;;;;5050387;28;19966;-83
2022/08/31 02:05:19;;;;;;;0.00;0.00;;;15.70;98.90;;;;;;5052516;28;21651;-87
2022/08/31 02:07:45;;;;;;;0.00;0.00;;;15.60;99.00;;;;;;5075047;28;20052;-84
2022/08/31 02:10:11;;;;;;;0.00;0.00;;;15.60;99.10;;;;;;5037002;28;20033;-83
2022/08/31 02:12:37;;;;;;;0.00;0.00;;;15.50;99.30;;;;;;5056006;28;20090;-83
2022/08/31 02:15:03;;;;;;;0.17;0.13;;;15.50;99.50;;;;;;5066271;28;20552;-83
2022/08/31 02:17:29;;;;;;;0.00;0.00;;;15.40;99.40;;;;;;5051661;28;20066;-84
2022/08/31 02:19:55;;;;;;;0.00;0.00;;;15.30;99.40;;;;;;5050557;28;20076;-83
2022/08/31 02:22:20;;;;;;;0.00;0.00;;;15.30;99.60;;;;;;5035234;28;20040;-83
2022/08/31 02:24:46;;;;;;;0.10;0.10;;;15.30;99.70;;;;;;5051787;28;20040;-83
2022/08/31 02:27:12;;;;;;;0.10;0.10;;;15.20;99.80;;;;;;5059938;28;20131;-83
2022/08/31 02:29:37;;;;;;;0.00;0.00;;;15.20;99.90;;;;;;5055537;28;20048;-85
2022/08/31 02:32:03;;;;;;;0.00;0.00;;;15.20;99.90;;;;;;5034030;28;21110;-82
2022/08/31 02:34:29;;;;;;;0.30;0.13;;;15.20;99.90;;;;;;5054329;28;20127;-83
2022/08/31 02:36:55;;;;;;;0.00;0.00;;;15.10;99.90;;;;;;5054636;28;20127;-82
2022/08/31 02:39:21;;;;;;;0.00;0.00;;;15.10;99.90;;;;;;5053279;28;20041;-83
2022/08/31 02:41:47;;;;;;;0.10;0.10;;;15.00;99.90;;;;;;5057003;28;20039;-83
2022/08/31 02:44:13;;;;;;;0.00;0.00;;;15.00;99.90;;;;;;5060957;28;20044;-83
2022/08/31 02:46:39;;;;;;;0.00;0.00;;;14.90;99.90;;;;;;5054788;28;20060;-82
2022/08/31 02:49:04;;;;;;;0.00;0.00;;;14.90;99.90;;;;;;5060297;28;20032;-82
2022/08/31 02:51:30;;;;;;;0.00;0.00;;;14.90;99.90;;;;;;5043581;28;20466;-83
2022/08/31 02:53:56;;;;;;;0.00;0.00;;;14.90;99.90;;;;;;5032860;28;20041;-84
2022/08/31 02:56:22;;;;;;;0.00;0.00;;;14.80;99.90;;;;;;5049111;28;20072;-83
2022/08/31 02:58:53;;;;;;;0.00;0.00;;;14.80;99.90;;;;;;5053160;28;20479;-84
2022/08/31 03:01:21;;;;;;;0.08;0.08;;;14.70;99.90;;;;;;5058658;28;20094;-83
2022/08/31 03:03:47;;;;;;;0.10;0.10;;;14.70;99.90;;;;;;5036256;28;20083;-89
2022/08/31 03:06:13;;;;;;;0.00;0.00;;;14.70;99.90;;;;;;5057311;28;20041;-83
2022/08/31 03:08:40;;;;;;;0.00;0.00;;;14.60;99.90;;;;;;5052627;28;20052;-83
2022/08/31 03:11:07;;;;;;;0.00;0.00;;;14.60;99.90;;;;;;5052848;28;20435;-83
2022/08/31 03:13:33;;;;;;;0.45;0.05;;;14.60;99.90;;;;;;5059242;28;20045;-83
2022/08/31 03:15:58;;;;;;;0.10;0.10;;;14.60;99.90;;;;;;5037652;28;20167;-83
2022/08/31 03:18:24;;;;;;;0.00;0.00;;;14.50;99.90;;;;;;5063216;28;20041;-83
2022/08/31 03:20:50;;;;;;;0.00;0.00;;;14.50;99.90;;;;;;5042781;28;20060;-88
2022/08/31 03:23:15;;;;;;;0.00;0.00;;;14.40;99.90;;;;;;5065291;28;20033;-84
2022/08/31 03:25:41;;;;;;;0.00;0.00;;;14.40;99.90;;;;;;5053766;28;20033;-83
2022/08/31 03:28:07;;;;;;;0.00;0.00;;;14.40;99.90;;;;;;5055047;28;20503;-83
2022/08/31 03:30:33;;;;;;;0.05;0.05;;;14.40;99.90;;;;;;5059096;28;20037;-83
2022/08/31 03:32:59;;;;;;;0.55;0.17;;;14.40;99.90;;;;;;5070690;28;20063;-83
2022/08/31 03:35:25;;;;;;;0.00;0.00;;;14.30;99.90;;;;;;5069667;28;20045;-83
2022/08/31 03:37:51;;;;;;;0.00;0.00;;;14.20;99.90;;;;;;5065517;28;20486;-89
2022/08/31 03:40:16;;;;;;;0.00;0.00;;;14.20;99.90;;;;;;5053649;28;20044;-83
2022/08/31 03:42:43;;;;;;;0.00;0.00;;;14.20;99.90;;;;;;5058194;28;20094;-83
2022/08/31 03:45:10;;;;;;;0.03;0.00;;;14.10;99.90;;;;;;5064244;28;20068;-86
2022/08/31 03:47:36;;;;;;;0.00;0.00;;;14.10;99.90;;;;;;5052707;28;20036;-83
2022/08/31 03:50:04;;;;;;;0.00;0.00;;;14.10;99.90;;;;;;5053340;28;20056;-83
2022/08/31 03:52:31;;;;;;;0.00;0.00;;;14.10;99.90;;;;;;5066974;28;20047;-83
2022/08/31 03:54:57;;;;;;;;;;;14.10;99.90;;;;;;5057463;28;20123;-84
2022/08/31 03:57:22;;;;;;;0.00;0.00;;;14.10;99.90;;;;;;5054990;28;20015;-83
2022/08/31 03:59:52;;;;;;;0.00;0.00;;;14.10;99.90;;;;;;5059011;28;20072;-84
2022/08/31 04:02:18;;;;;;;0.00;0.00;;;14.00;99.90;;;;;;5066083;28;20116;-83
2022/08/31 04:04:49;;;;;;;0.00;0.00;;;14.00;99.90;;;;;;5053826;28;20526;-83
2022/08/31 04:07:15;;;;;;;0.38;0.10;;;14.00;99.90;;;;;;5036693;28;20173;-83
2022/08/31 04:09:40;;;;;;;0.00;0.00;;;14.00;99.90;;;;;;5026598;28;20105;-82
2022/08/31 04:12:06;;;;;;;0.53;0.10;;;13.90;99.90;;;;;;5048017;28;20074;-83
2022/08/31 04:14:32;;;;;;;0.20;0.20;;;13.90;99.90;;;;;;5036290;28;20045;-84
2022/08/31 04:16:59;;;;;;;0.00;0.00;;;13.80;99.90;;;;;;5038820;28;20067;-86
2022/08/31 04:19:25;;;;;;;0.60;0.10;;;13.80;99.90;;;;;;5044779;28;20045;-82
2022/08/31 04:21:51;;;;;;;0.00;0.00;;;13.80;99.90;;;;;;5042261;28;20054;-83
2022/08/31 04:24:16;;;;;;;0.00;0.00;;;13.80;99.90;;;;;;5034899;28;20631;-84
2022/08/31 04:26:42;;;;;;;0.13;0.00;;;13.70;99.90;;;;;;5036180;28;20434;-83
2022/08/31 04:29:08;;;;;;;0.00;0.00;;;13.70;99.90;;;;;;5038228;28;20052;-83
2022/08/31 04:31:36;;;;;;;0.00;0.00;;;13.60;99.90;;;;;;5037885;28;20099;-82
2022/08/31 04:34:02;;;;;;;0.00;0.00;;;13.60;99.90;;;;;;5047042;28;20073;-83
2022/08/31 04:36:28;;;;;;;0.10;0.10;;;13.70;99.90;;;;;;5024125;28;20131;-85
2022/08/31 04:38:57;;;;;;;0.10;0.10;;;13.70;99.90;;;;;;5044932;28;20489;-83
2022/08/31 04:41:25;;;;;;;0.00;0.00;;;13.60;99.90;;;;;;5034894;28;20075;-83
2022/08/31 04:43:53;;;;;;;0.08;0.00;;;13.60;99.90;;;;;;5058238;28;20048;-83
2022/08/31 04:46:20;;;;;;;0.00;0.00;;;13.60;99.90;;;;;;5054169;28;20049;-83
2022/08/31 04:48:46;;;;;;;;;;;13.50;99.90;;;;;;5037797;28;20094;-83
2022/08/31 04:51:15;;;;;;;0.00;0.00;;;13.50;99.90;;;;;;5052202;28;19920;-83
2022/08/31 04:53:42;;;;;;;0.10;0.10;;;13.50;99.90;;;;;;5052681;28;20045;-83
2022/08/31 04:56:14;;;;;;;0.00;0.00;;;13.50;99.90;;;;;;5047191;28;20065;-83
2022/08/31 04:58:42;;;;;;;0.00;0.00;;;13.50;99.90;;;;;;5050340;28;20037;-84
2022/08/31 05:01:14;;;;;;;0.00;0.00;;;13.50;99.90;;;;;;5033826;28;20526;-83
2022/08/31 05:03:40;;;;;;;0.00;0.00;;;13.50;99.90;;;;;;5053102;28;20088;-83
2022/08/31 05:06:13;;;;;;;0.10;0.10;;;13.50;99.90;;;;;;5050288;28;20084;-84
2022/08/31 05:08:39;;;;;;;0.03;0.03;;;13.50;99.90;;;;;;5065507;28;20056;-83
2022/08/31 05:11:13;;;;;;;0.00;0.00;;;13.50;99.90;;;;;;5063692;28;20056;-87
2022/08/31 05:13:39;;;;;;;0.00;0.00;;;13.40;99.90;;;;;;5057911;28;20048;-83
2022/08/31 05:16:09;;;;;;;0.00;0.00;;;13.50;99.90;;;;;;5035032;28;20056;-89
2022/08/31 05:18:36;;;;;;;0.10;0.00;;;13.50;99.90;;;;;;5056619;28;20045;-83
2022/08/31 05:21:10;;;;;;;0.00;0.00;;;13.40;99.90;;;;;;5051771;28;20082;-83
2022/08/31 05:23:36;;;;;;;0.00;0.00;;;13.40;99.90;;;;;;5054194;28;20045;-83
2022/08/31 05:26:02;;;;;;;0.10;0.10;;;13.40;99.90;;;;;;5054292;28;20049;-83
2022/08/31 05:28:28;;;;;;;0.00;0.00;;;13.40;99.90;;;;;;5063956;28;20067;-82
2022/08/31 05:30:53;;;;;;;0.00;0.00;;;13.40;99.90;;;;;;5059857;28;20041;-82
2022/08/31 05:33:19;;;;;;;0.00;0.00;;;13.40;99.90;;;;;;5067344;28;20482;-82
2022/08/31 05:35:47;;;;;;;0.03;0.03;;;13.40;99.90;;;;;;5060229;28;20094;-83
2022/08/31 05:38:12;;;;;;;0.00;0.00;;;13.40;99.90;;;;;;5052978;28;20068;-82
2022/08/31 05:40:38;;;;;;;0.20;0.10;;;13.40;99.90;;;;;;5037349;28;20069;-82
2022/08/31 05:43:03;;;;;;;0.00;0.00;;;13.50;99.90;;;;;;5050784;28;20398;-82
2022/08/31 05:45:29;;;;;;;0.10;0.10;;;13.50;99.90;;;;;;5059257;28;20533;-82
2022/08/31 05:47:55;;;;;;;0.00;0.00;;;13.60;99.90;;;;;;5052746;28;20430;-82
2022/08/31 05:50:21;;;;;;;0.00;0.00;;;13.60;99.90;;;;;;5053937;28;20048;-81
2022/08/31 05:52:46;;;;;;;0.00;0.00;;;13.70;99.90;;;;;;5018707;28;20047;-80
2022/08/31 05:55:12;;;;;;;0.10;0.10;;;13.90;99.90;;;;;;5057470;28;20094;-83
2022/08/31 05:57:39;;;;;;;0.00;0.00;;;14.00;99.90;;;;;;5024525;28;20059;-82
2022/08/31 06:00:09;;;;;;;;;;;14.20;99.90;;;;;;5018279;28;20049;-82
2022/08/31 06:02:38;;;;;;;0.10;0.10;;;14.40;99.90;;;;;;5019805;28;19920;-82
2022/08/31 06:05:05;;;;;;;0.00;0.00;;;14.60;99.90;;;;;;5039761;28;20128;-85
2022/08/31 06:07:30;;;;;;;0.00;0.00;;;14.70;99.90;;;;;;5026132;28;20037;-82
2022/08/31 06:09:56;;;;;;;0.37;0.00;;;14.80;99.90;;;;;;5027622;28;20037;-82
2022/08/31 06:12:24;;;;;;;0.20;0.20;;;15.00;99.90;;;;;;5042575;28;20044;-85
2022/08/31 06:14:50;;;;;;;0.00;0.00;;;15.10;99.90;;;;;;5042994;28;20128;-86
2022/08/31 06:17:16;;;;;;;0.00;0.00;;;15.30;99.90;;;;;;5013060;28;20132;-84
2022/08/31 06:19:42;;;;;;;0.00;0.00;;;15.40;99.90;;;;;;5019687;28;20079;-81
2022/08/31 06:22:08;;;;;;;0.03;0.03;;;15.50;99.90;;;;;;5043991;28;20047;-82
2022/08/31 06:24:35;;;;;;;0.00;0.00;;;15.70;99.90;;;;;;5034519;28;20053;-81
2022/08/31 06:27:04;;;;;;;0.00;0.00;;;15.80;99.90;;;;;;5042604;28;20053;-81
2022/08/31 06:29:31;;;;;;;0.00;0.00;;;15.90;99.90;;;;;;5054167;28;20444;-82
2022/08/31 06:31:56;;;;;;;0.10;0.08;;;16.00;99.90;;;;;;5052595;28;20044;-86
2022/08/31 06:34:23;;;;;;;0.00;0.00;;;16.20;99.90;;;;;;5054238;28;20041;-87
2022/08/31 06:36:49;;;;;;;0.00;0.00;;;16.30;99.90;;;;;;5035447;28;20190;-83
2022/08/31 06:39:15;;;;;;;0.00;0.00;;;16.40;99.90;;;;;;5042210;28;20526;-88
2022/08/31 06:41:41;;;;;;;0.00;0.00;;;16.60;99.90;;;;;;5041393;28;20043;-82
2022/08/31 06:44:10;;;;;;;0.00;0.00;;;16.70;99.90;;;;;;5037327;28;20041;-84
2022/08/31 06:46:38;;;;;;;0.00;0.00;;;16.80;99.90;;;;;;5034353;28;20500;-82
2022/08/31 06:49:05;;;;;;;0.30;0.28;;;17.00;99.90;;;;;;5048159;28;20091;-81
2022/08/31 06:51:35;;;;;;;0.00;0.00;;;17.10;99.90;;;;;;5052556;28;20051;-82
2022/08/31 06:54:03;;;;;;;0.00;0.00;;;17.20;99.90;;;;;;5038474;28;20399;-83
2022/08/31 06:56:29;;;;;;;0.00;0.00;;;17.30;99.90;;;;;;5058168;28;20052;-82
2022/08/31 06:58:54;;;;;;;0.10;0.10;;;17.50;99.90;;;;;;5043576;28;20402;-84
2022/08/31 07:01:27;;;;;;;0.10;0.10;;;17.50;99.90;;;;;;5029036;28;20037;-86
2022/08/31 07:03:54;;;;;;;0.47;0.10;;;17.60;99.90;;;;;;5024611;28;20051;-84
2022/08/31 07:06:23;;;;;;;0.00;0.00;;;17.80;99.90;;;;;;5018994;28;20057;-86
2022/08/31 07:08:51;;;;;;;0.00;0.00;;;17.90;99.90;;;;;;5035655;28;20399;-86
2022/08/31 07:11:42;;;;;;;0.10;0.00;;;18.10;99.90;;;;;;5063927;28;20557;-89
2022/08/31 07:14:11;;;;;;;0.03;0.03;;;18.20;99.90;;;;;;5031527;28;20578;-86
2022/08/31 07:16:37;;;;;;;0.00;0.00;;;18.30;99.90;;;;;;5039408;28;20044;-85
2022/08/31 07:19:05;;;;;;;;;;;18.50;99.90;;;;;;5041639;28;20043;-84
2022/08/31 07:21:39;;;;;;;0.00;0.00;;;18.60;99.90;;;;;;5038857;28;19932;-87
2022/08/31 07:24:06;;;;;;;0.00;0.00;;;18.70;99.90;;;;;;5038279;28;20453;-85
2022/08/31 07:26:35;;;;;;;0.00;0.00;;;18.70;99.90;;;;;;5054767;28;20087;-87
2022/08/31 07:29:05;;;;;;;0.03;0.00;;;18.80;99.90;;;;;;5060506;28;20041;-85
2022/08/31 07:31:48;;;;;;;0.00;0.00;;;18.90;99.90;;;;;;5042197;28;20119;-85
2022/08/31 07:34:19;;;;;;;0.40;0.00;;;18.90;99.90;;;;;;5049753;28;20053;-84
2022/08/31 07:42:19;;;;;;;0.00;0.00;;;19.10;99.90;;;;;;5038875;28;20052;-85
2022/08/31 07:44:50;;;;;;;0.22;0.10;;;19.10;99.90;;;;;;5040404;28;20086;-84
2022/08/31 07:47:19;;;;;;;0.00;0.00;;;19.20;99.90;;;;;;5046610;28;20086;-84
2022/08/31 07:49:50;;;;;;;0.00;0.00;;;19.10;99.90;;;;;;5058740;28;20051;-83
2022/08/31 07:52:22;;;;;;;0.08;0.08;;;19.20;99.90;;;;;;5051657;28;20041;-84
2022/08/31 07:54:50;;;;;;;0.00;0.00;;;19.30;99.90;;;;;;5069724;28;20079;-84
2022/08/31 07:57:17;;;;;;;0.00;0.00;;;19.40;99.90;;;;;;5083923;28;20517;-83
2022/08/31 07:59:45;;;;;;;0.00;0.00;;;19.50;99.90;;;;;;5071146;28;20040;-84
2022/08/31 08:02:13;;;;;;;0.00;0.00;;;19.50;99.90;;;;;;5070831;28;20076;-83
2022/08/31 08:04:41;;;;;;;0.00;0.00;;;19.60;99.90;;;;;;5062642;28;20041;-87
2022/08/31 08:07:08;;;;;;;0.10;0.10;;;19.60;99.90;;;;;;5071371;28;20076;-86
2022/08/31 08:09:34;;;;;;;0.20;0.00;;;19.70;99.90;;;;;;5071433;28;20037;-85
2022/08/31 08:12:05;;;;;;;0.10;0.10;;;19.80;99.90;;;;;;5054555;28;20058;-85
2022/08/31 08:14:38;;;;;;;0.00;0.00;;;19.90;99.40;;;;;;5053007;28;20041;-85
2022/08/31 08:17:06;;;;;;;0.00;0.00;;;19.90;99.80;;;;;;5088499;28;20056;-85
2022/08/31 08:19:32;;;;;;;0.35;0.03;;;19.90;99.20;;;;;;5059085;28;20045;-85
2022/08/31 08:21:59;;;;;;;0.00;0.00;;;20.00;99.50;;;;;;5063601;28;20049;-85
2022/08/31 08:24:27;;;;;;;0.00;0.00;;;20.00;99.30;;;;;;5076093;28;20045;-85
2022/08/31 08:26:52;;;;;;;0.10;0.10;;;20.20;99.10;;;;;;5043583;28;20037;-85
2022/08/31 08:29:19;;;;;;;0.10;0.10;;;20.20;99.30;;;;;;5056612;28;20538;-85
2022/08/31 08:31:53;;;;;;;;;;;20.20;99.00;;;;;;5040960;28;20052;-84
2022/08/31 08:34:23;;;;;;;0.10;0.10;;;20.20;97.30;;;;;;5055184;28;19944;-83
2022/08/31 08:36:50;;;;;;;0.00;0.00;;;20.10;97.70;;;;;;5062840;28;20048;-86
2022/08/31 08:39:17;;;;;;;0.00;0.00;;;20.00;98.10;;;;;;5041270;28;20047;-87
2022/08/31 08:41:45;;;;;;;0.10;0.10;;;20.10;98.50;;;;;;5055664;28;20048;-84
2022/08/31 08:44:14;;;;;;;0.00;0.00;;;20.10;98.80;;;;;;5067131;28;20130;-85
2022/08/31 08:47:02;;;;;;;0.00;0.00;;;20.10;98.90;;;;;;5036293;28;20044;-85
2022/08/31 08:49:49;;;;;;;0.00;0.00;;;20.00;98.20;;;;;;5053293;28;20045;-85
2022/08/31 08:52:33;;;;;;;0.00;0.00;;;20.10;99.30;;;;;;5066711;28;20060;-84
2022/08/31 08:55:03;;;;;;;0.00;0.00;;;20.20;98.40;;;;;;5033660;28;20474;-85
2022/08/31 08:57:33;;;;;;;0.25;0.00;;;20.30;98.60;;;;;;5032802;28;20103;-84
2022/08/31 09:00:06;;;;;;;0.00;0.00;;;20.30;98.10;;;;;;5034752;28;20049;-84
2022/08/31 09:02:45;;;;;;;0.00;0.00;;;20.30;97.90;;;;;;5037227;28;20044;-85
2022/08/31 09:05:38;;;;;;;0.00;0.00;;;20.30;97.70;;;;;;5053413;28;20399;-84
2022/08/31 09:08:22;;;;;;;0.00;0.00;;;20.30;96.80;;;;;;5037953;28;20037;-83
2022/08/31 09:11:17;;;;;;;0.00;0.00;;;20.40;96.70;;;;;;5083536;28;20048;-84
2022/08/31 09:14:09;;;;;;;0.00;0.00;;;20.40;96.20;;;;;;5026195;28;20407;-86
2022/08/31 09:16:46;;;;;;;0.00;0.00;;;20.40;96.80;;;;;;5051069;28;20394;-83
2022/08/31 09:19:15;;;;;;;;;;;20.40;96.70;;;;;;5069900;28;20388;-83
2022/08/31 09:21:48;;;;;;;0.32;0.00;;;20.40;95.10;;;;;;5085836;28;20026;-84
2022/08/31 09:24:34;;;;;;;0.00;0.00;;;20.50;96.50;;;;;;5069512;28;20498;-82
2022/08/31 09:27:19;;;;;;;0.00;0.00;;;20.50;96.10;;;;;;5068980;28;20052;-83
2022/08/31 09:29:57;;;;;;;0.00;0.00;;;20.40;95.90;;;;;;5068703;28;20056;-84
2022/08/31 09:32:33;;;;;;;0.00;0.00;;;20.50;96.40;;;;;;5086217;28;20111;-83
2022/08/31 09:35:23;;;;;;;0.00;0.00;;;20.40;95.90;;;;;;5051994;28;20446;-82
2022/08/31 09:38:01;;;;;;;0.00;0.00;;;20.40;95.40;;;;;;5085340;28;20037;-83
2022/08/31 09:40:47;;;;;;;0.90;0.05;;;20.40;95.80;;;;;;5068997;28;20048;-83
2022/08/31 09:43:28;;;;;;;0.10;0.10;;;20.40;95.60;;;;;;5069271;28;20052;-83
2022/08/31 09:45:54;;;;;;;0.03;0.00;;;20.50;94.90;;;;;;5068231;28;20059;-81
2022/08/31 09:48:50;;;;;;;0.00;0.00;;;20.50;95.90;;;;;;5034292;28;20041;-82
2022/08/31 09:51:27;;;;;;;0.00;0.00;;;20.70;93.90;;;;;;5051029;28;20318;-82
2022/08/31 09:56:53;;;;;;;0.00;0.00;;;20.90;94.80;;;;;;5051054;28;20100;-83
2022/08/31 09:59:36;;;;;;;0.00;0.00;;;20.90;94.60;;;;;;5051856;28;20064;-83
2022/08/31 10:02:10;;;;;;;0.10;0.08;;;21.10;94.50;;;;;;5051473;28;20048;-84
2022/08/31 10:04:46;;;;;;;0.10;0.00;;;21.20;95.00;;;;;;5035396;28;20377;-83
2022/08/31 10:07:37;;;;;;;0.00;0.00;;;21.30;94.10;;;;;;5035442;28;20136;-84
2022/08/31 10:10:07;;;;;;;0.28;0.17;;;21.30;93.60;;;;;;5034674;28;20128;-83
2022/08/31 10:12:44;;;;;;;0.15;0.10;;;21.30;94.40;;;;;;5051957;28;20052;-84
2022/08/31 10:15:22;;;;;;;0.00;0.00;;;21.40;94.10;;;;;;5035459;28;20119;-83
2022/08/31 10:18:12;;;;;;;0.00;0.00;;;21.50;93.70;;;;;;5049626;28;20041;-83
2022/08/31 10:21:00;;;;;;;0.00;0.00;;;21.50;91.20;;;;;;5085015;28;20049;-84
2022/08/31 10:23:33;;;;;;;;;;;21.60;92.50;;;;;;5085607;28;20102;-83
2022/08/31 10:26:17;;;;;;;0.00;0.00;;;21.70;91.90;;;;;;5084693;28;19985;-83
2022/08/31 10:28:53;;;;;;;0.00;0.00;;;21.70;91.50;;;;;;5084994;28;20056;-84
2022/08/31 10:31:30;;;;;;;0.00;0.00;;;21.80;91.60;;;;;;5068222;28;20567;-84
2022/08/31 10:36:50;;;;;;;0.10;0.10;;;21.80;92.60;;;;;;5051268;28;20128;-82
2022/08/31 10:39:36;;;;;;;0.00;0.00;;;21.80;92.40;;;;;;5034856;28;20167;-81
2022/08/31 10:42:07;;;;;;;0.10;0.10;;;21.90;92.10;;;;;;5034353;28;20110;-85
2022/08/31 10:44:43;;;;;;;0.10;0.00;;;21.90;92.60;;;;;;5051733;28;20045;-84
2022/08/31 10:47:11;;;;;;;0.05;0.05;;;22.10;92.20;;;;;;5049379;28;20051;-83
2022/08/31 10:49:38;;;;;;;0.05;0.00;;;22.20;91.70;;;;;;5084689;28;20049;-80
2022/08/31 10:52:31;;;;;;;0.00;0.00;;;22.20;91.90;;;;;;5072112;28;20372;-81
2022/08/31 10:55:20;;;;;;;0.20;0.20;;;22.30;89.50;;;;;;5030953;28;20084;-82
2022/08/31 10:57:55;;;;;;;0.00;0.00;;;22.20;89.60;;;;;;5031182;28;20061;-84
2022/08/31 11:00:40;;;;;;;0.00;0.00;;;22.30;90.00;;;;;;5031492;28;20053;-81
2022/08/31 11:03:21;;;;;;;0.00;0.00;;;22.30;90.70;;;;;;5030936;28;20049;-81
2022/08/31 11:06:04;;;;;;;0.00;0.00;;;22.30;89.90;;;;;;5042511;28;20037;-84
2022/08/31 11:08:48;;;;;;;0.00;0.00;;;22.30;89.90;;;;;;5051423;28;20534;-81
2022/08/31 11:11:35;;;;;;;0.10;0.10;;;22.40;88.80;;;;;;5050927;28;20045;-81
2022/08/31 11:14:15;;;;;;;0.00;0.00;;;22.50;88.80;;;;;;5050760;28;20051;-81
2022/08/31 11:17:06;;;;;;;0.10;0.10;;;22.60;88.20;;;;;;5060380;28;20052;-82
2022/08/31 11:19:49;;;;;;;0.10;0.10;;;22.70;88.10;;;;;;5046296;28;20041;-81
2022/08/31 11:23:01;;;;;;;0.00;0.00;;;22.70;85.40;;;;;;5060336;28;20059;-81
2022/08/31 11:25:55;;;;;;;0.00;0.00;;;22.80;85.10;;;;;;5050580;28;20140;-82
2022/08/31 11:28:32;;;;;;;0.00;0.00;;;22.90;85.10;;;;;;5041136;28;20063;-82
2022/08/31 11:31:16;;;;;;;0.10;0.00;;;23.00;85.80;;;;;;5033841;28;20053;-82
2022/08/31 11:33:51;;;;;;;0.00;0.00;;;23.00;84.90;;;;;;5056756;28;20399;-81
2022/08/31 11:36:48;;;;;;;0.00;0.00;;;23.10;83.80;;;;;;5062115;28;20045;-82
2022/08/31 11:39:25;;;;;;;0.03;0.03;;;23.20;84.30;;;;;;5070601;28;20102;-82
2022/08/31 11:41:52;;;;;;;0.10;0.00;;;23.20;84.30;;;;;;5054697;28;20499;-81
2022/08/31 11:44:38;;;;;;;0.00;0.00;;;23.20;84.50;;;;;;5022980;28;20059;-82
2022/08/31 11:47:28;;;;;;;0.00;0.00;;;23.30;80.10;;;;;;5085842;28;20049;-81
2022/08/31 11:50:04;;;;;;;0.00;0.00;;;23.30;80.60;;;;;;5084532;28;20048;-83
2022/08/31 11:52:37;;;;;;;0.00;0.00;;;23.30;82.10;;;;;;5085014;28;20072;-83
2022/08/31 11:55:16;;;;;;;0.10;0.10;;;23.40;81.40;;;;;;5053972;28;20091;-82
2022/08/31 11:58:05;;;;;;;0.00;0.00;;;23.30;79.90;;;;;;5054284;28;20041;-82
2022/08/31 12:00:58;;;;;;;0.00;0.00;;;23.30;78.00;;;;;;5037811;28;20041;-83
2022/08/31 12:03:38;;;;;;;0.00;0.00;;;23.30;77.80;;;;;;5039008;28;20097;-82
2022/08/31 12:06:10;;;;;;;0.10;0.10;;;23.20;79.10;;;;;;5053521;28;20049;-83
2022/08/31 12:08:51;;;;;;;0.15;0.03;;;23.30;78.90;;;;;;5054179;28;20052;-82
2022/08/31 12:11:19;;;;;;;0.05;0.05;;;23.30;81.90;;;;;;5053682;28;20120;-83
2022/08/31 12:14:10;;;;;;;1.70;0.17;;;23.40;81.70;;;;;;5087570;28;20080;-83
2022/08/31 12:16:57;;;;;;;0.10;0.10;;;23.50;79.10;;;;;;5069109;28;20040;-83
2022/08/31 12:20:04;;;;;;;0.00;0.00;;;23.40;77.20;;;;;;5086309;28;20102;-83
2022/08/31 12:26:06;;;;;;;0.00;0.00;;;23.70;79.60;;;;;;5053909;28;20055;-83
2022/08/31 12:29:09;;;;;;;0.00;0.00;;;23.90;76.40;;;;;;5087453;28;20136;-83
2022/08/31 12:31:38;;;;;;;0.00;0.00;;;24.00;77.60;;;;;;5087446;28;20037;-82
2022/08/31 12:34:09;;;;;;;0.00;0.00;;;24.10;79.40;;;;;;5086840;28;20060;-83
2022/08/31 12:36:36;;;;;;;0.00;0.00;;;24.20;79.30;;;;;;5087411;28;20075;-82
2022/08/31 12:39:22;;;;;;;0.10;0.10;;;24.10;77.20;;;;;;5019865;28;20131;-83
2022/08/31 12:42:02;;;;;;;0.10;0.00;;;24.20;75.20;;;;;;5087131;28;20041;-82
2022/08/31 12:44:37;;;;;;;0.08;0.00;;;24.20;75.70;;;;;;5087101;28;20495;-83
2022/08/31 12:47:25;;;;;;;0.00;0.00;;;24.20;76.70;;;;;;5067038;28;20060;-83
2022/08/31 12:50:15;;;;;;;0.00;0.00;;;24.20;77.00;;;;;;5041003;28;20472;-83
2022/08/31 12:52:58;;;;;;;0.20;0.20;;;24.40;75.60;;;;;;5070304;28;20052;-83
2022/08/31 12:55:54;;;;;;;0.00;0.00;;;24.40;74.30;;;;;;5086062;28;20053;-82
2022/08/31 12:58:59;;;;;;;0.00;0.00;;;24.30;75.70;;;;;;5035945;28;20083;-82
2022/08/31 13:01:25;;;;;;;0.10;0.10;;;24.50;75.00;;;;;;5035917;28;20078;-83
2022/08/31 13:03:55;;;;;;;0.10;0.00;;;24.50;77.00;;;;;;5053379;28;20391;-83
2022/08/31 13:06:31;;;;;;;0.00;0.00;;;24.50;76.00;;;;;;5069211;28;20056;-82
2022/08/31 13:08:58;;;;;;;0.00;0.00;;;24.50;75.10;;;;;;5069931;28;20470;-83
2022/08/31 13:11:41;;;;;;;0.00;0.00;;;24.50;75.90;;;;;;5035801;28;20063;-83
2022/08/31 13:14:25;;;;;;;0.00;0.00;;;24.70;75.90;;;;;;5035768;28;20063;-84
2022/08/31 13:16:56;;;;;;;0.05;0.05;;;24.80;74.40;;;;;;5036521;28;20112;-83
2022/08/31 13:19:29;;;;;;;0.00;0.00;;;24.90;74.40;;;;;;5050356;28;20052;-83
2022/08/31 13:22:04;;;;;;;0.00;0.00;;;25.00;74.90;;;;;;5068567;28;20549;-83
2022/08/31 13:24:41;;;;;;;0.00;0.00;;;25.10;74.60;;;;;;5035879;28;20045;-83
2022/08/31 13:27:17;;;;;;;0.00;0.00;;;25.10;71.90;;;;;;5068980;28;20075;-84
2022/08/31 13:29:44;;;;;;;0.20;0.00;;;25.20;73.50;;;;;;5036297;28;20438;-83
2022/08/31 13:32:13;;;;;;;0.00;0.00;;;25.20;72.50;;;;;;5035432;28;20041;-84